createdAt,value
2019-05-26T00:01:19.524Z,101127.82
2019-05-26T00:03:51.699Z,101127.08
2019-05-26T00:06:21.910Z,101124.42
2019-05-26T00:08:52.768Z,101119.60
2019-05-26T00:11:22.885Z,101119.60
2019-05-26T00:13:53.029Z,101113.88
2019-05-26T00:16:24.187Z,101116.12
2019-05-26T00:18:54.319Z,101110.84
2019-05-26T00:21:27.788Z,101101.14
2019-05-26T00:23:59.810Z,101108.23
2019-05-26T00:26:30.302Z,101098.94
2019-05-26T00:29:00.443Z,101102.89
2019-05-26T00:31:31.045Z,101101.18
2019-05-26T00:34:01.136Z,101098.03
2019-05-26T00:36:31.417Z,101094.94
2019-05-26T00:39:01.598Z,101092.30
2019-05-26T00:41:33.656Z,101091.43
2019-05-26T00:44:05.462Z,101091.51
2019-05-26T00:46:36.044Z,101090.59
2019-05-26T00:49:06.220Z,101088.42
2019-05-26T00:51:37.338Z,101082.41
2019-05-26T00:54:07.526Z,101079.27
2019-05-26T00:56:37.650Z,101077.50
2019-05-26T00:59:07.784Z,101077.03
2019-05-26T01:01:37.891Z,101079.27
2019-05-26T01:04:08.012Z,101070.00
2019-05-26T01:06:39.640Z,101070.48
2019-05-26T01:09:10.010Z,101068.73
2019-05-26T01:11:40.214Z,101070.08
2019-05-26T01:14:10.424Z,101063.05
2019-05-26T01:16:40.548Z,101063.50
2019-05-26T01:19:11.782Z,101056.47
2019-05-26T01:21:42.302Z,101055.17
2019-05-26T01:24:12.591Z,101057.41
2019-05-26T01:26:45.776Z,101055.66
2019-05-26T01:29:15.993Z,101045.50
2019-05-26T01:31:47.179Z,101052.56
2019-05-26T01:34:17.318Z,101052.16
2019-05-26T01:36:48.070Z,101049.47
2019-05-26T01:39:18.302Z,101044.16
2019-05-26T01:41:48.422Z,101043.69
2019-05-26T01:44:19.152Z,101038.45
2019-05-26T01:46:49.406Z,101037.17
2019-05-26T01:49:19.500Z,101037.63
2019-05-26T01:51:49.610Z,101033.22
2019-05-26T01:54:21.061Z,101037.58
2019-05-26T01:56:51.149Z,101032.72
2019-05-26T01:59:22.481Z,101034.92
2019-05-26T02:01:52.567Z,101031.86
2019-05-26T02:04:22.765Z,101038.02
2019-05-26T02:06:52.999Z,101036.69
2019-05-26T02:09:23.139Z,101033.16
2019-05-26T02:11:53.480Z,101032.66
2019-05-26T02:14:24.044Z,101032.72
2019-05-26T02:16:54.245Z,101030.94
2019-05-26T02:19:24.829Z,101023.00
2019-05-26T02:21:54.909Z,101025.64
2019-05-26T02:24:25.082Z,101023.00
2019-05-26T02:26:55.454Z,101025.64
2019-05-26T02:29:25.645Z,101020.80
2019-05-26T02:31:55.759Z,101012.48
2019-05-26T02:34:26.023Z,101019.07
2019-05-26T02:36:58.061Z,101018.64
2019-05-26T02:39:28.221Z,101013.37
2019-05-26T02:41:58.304Z,101006.73
2019-05-26T02:44:28.393Z,101006.25
2019-05-26T02:46:58.479Z,101007.57
2019-05-26T02:49:28.624Z,101009.77
2019-05-26T02:51:58.861Z,101001.84
2019-05-26T02:54:28.955Z,100999.25
2019-05-26T02:56:59.111Z,101001.84
2019-05-26T02:59:29.227Z,100998.72
2019-05-26T03:02:03.974Z,100997.88
2019-05-26T03:04:32.344Z,100992.97
2019-05-26T03:07:03.654Z,100996.91
2019-05-26T03:09:34.944Z,100985.45
2019-05-26T03:12:05.199Z,100986.73
2019-05-26T03:14:37.322Z,100989.42
2019-05-26T03:17:07.982Z,100981.92
2019-05-26T03:19:40.560Z,100981.44
2019-05-26T03:22:12.069Z,100980.03
2019-05-26T03:24:45.159Z,100979.13
2019-05-26T03:27:15.258Z,100979.66
2019-05-26T03:29:45.471Z,100983.12
2019-05-26T03:32:15.661Z,100976.86
2019-05-26T03:34:46.888Z,100976.83
2019-05-26T03:37:16.971Z,100974.23
2019-05-26T03:39:48.064Z,100971.04
2019-05-26T03:42:18.177Z,100971.98
2019-05-26T03:44:48.306Z,100964.02
2019-05-26T03:47:18.439Z,100966.13
2019-05-26T03:49:48.649Z,100961.27
2019-05-26T03:52:18.757Z,100960.83
2019-05-26T03:54:49.976Z,100953.75
2019-05-26T03:57:20.274Z,100954.61
2019-05-26T03:59:50.393Z,100962.07
2019-05-26T04:02:20.476Z,100961.56
2019-05-26T04:04:50.674Z,100958.19
2019-05-26T04:07:20.754Z,100948.72
2019-05-26T04:10:03.761Z,100954.77
2019-05-26T04:12:22.802Z,100954.24
2019-05-26T04:14:53.499Z,100953.29
2019-05-26T04:17:24.396Z,100943.56
2019-05-26T04:19:54.939Z,100950.06
2019-05-26T04:22:25.122Z,100940.79
2019-05-26T04:24:55.311Z,100936.38
2019-05-26T04:27:25.542Z,100942.11
2019-05-26T04:29:55.716Z,100938.45
2019-05-26T04:32:25.983Z,100933.58
2019-05-26T04:34:56.090Z,100934.34
2019-05-26T04:37:26.230Z,100934.19
2019-05-26T04:39:56.398Z,100930.51
2019-05-26T04:42:26.601Z,100931.20
2019-05-26T04:44:56.892Z,100926.12
2019-05-26T04:47:27.122Z,100930.50
2019-05-26T04:49:57.284Z,100929.92
2019-05-26T04:52:27.671Z,100927.95
2019-05-26T04:55:00.851Z,100936.23
2019-05-26T04:57:31.102Z,100934.33
2019-05-26T05:00:01.361Z,100927.94
2019-05-26T05:02:31.580Z,100926.46
2019-05-26T05:05:06.002Z,100925.91
2019-05-26T05:07:36.225Z,100928.84
2019-05-26T05:10:07.083Z,100925.64
2019-05-26T05:12:37.385Z,100922.01
2019-05-26T05:15:08.421Z,100919.70
2019-05-26T05:17:38.699Z,100919.93
2019-05-26T05:20:09.261Z,100912.18
2019-05-26T05:22:43.881Z,100908.92
2019-05-26T05:25:17.095Z,100905.77
2019-05-26T05:27:49.477Z,100909.99
2019-05-26T05:30:19.873Z,100904.47
2019-05-26T05:32:54.021Z,100905.98
2019-05-26T05:35:24.733Z,100899.89
2019-05-26T05:37:55.062Z,100893.00
2019-05-26T05:40:25.300Z,100894.24
2019-05-26T05:42:55.619Z,100892.75
2019-05-26T05:45:27.996Z,100891.06
2019-05-26T05:48:02.902Z,100892.67
2019-05-26T05:50:43.718Z,100896.56
2019-05-26T05:53:14.358Z,100895.00
2019-05-26T05:55:44.640Z,100889.70
2019-05-26T05:58:23.641Z,100875.56
2019-05-26T06:00:58.666Z,100879.50
2019-05-26T06:03:33.051Z,100883.26
2019-05-26T06:06:07.603Z,100887.09
2019-05-26T06:08:37.895Z,100889.81
2019-05-26T06:11:16.644Z,100882.18
2019-05-26T06:13:41.005Z,100882.27
2019-05-26T06:16:11.166Z,100884.43
2019-05-26T06:18:42.839Z,100888.50
2019-05-26T06:21:13.071Z,100886.73
2019-05-26T06:23:43.317Z,100890.98
2019-05-26T06:26:14.681Z,100885.89
2019-05-26T06:28:47.977Z,100888.08
2019-05-26T06:31:18.353Z,100882.14
2019-05-26T06:33:48.635Z,100881.72
2019-05-26T06:36:21.794Z,100883.77
2019-05-26T06:38:53.680Z,100885.94
2019-05-26T06:41:33.790Z,100885.88
2019-05-26T06:44:03.250Z,100878.62
2019-05-26T06:46:33.954Z,100877.94
2019-05-26T06:49:04.379Z,100872.64
2019-05-26T06:51:34.551Z,100869.10
2019-05-26T06:54:08.050Z,100871.47
2019-05-26T06:56:38.448Z,100873.19
2019-05-26T06:59:08.750Z,100866.13
2019-05-26T07:01:39.076Z,100877.25
2019-05-26T07:04:11.762Z,100869.26
2019-05-26T07:06:43.756Z,100874.45
2019-05-26T07:09:13.956Z,100875.09
2019-05-26T07:11:55.731Z,100870.50
2019-05-26T07:14:19.850Z,100874.23
2019-05-26T07:16:52.804Z,100877.59
2019-05-26T07:19:23.022Z,100873.70
2019-05-26T07:21:53.211Z,100874.45
2019-05-26T07:24:23.387Z,100868.88
2019-05-26T07:26:58.095Z,100868.35
2019-05-26T07:29:30.577Z,100868.70
2019-05-26T07:32:00.803Z,100867.69
2019-05-26T07:34:36.359Z,100868.93
2019-05-26T07:37:06.757Z,100863.96
2019-05-26T07:39:37.019Z,100861.98
2019-05-26T07:42:10.494Z,100864.44
2019-05-26T07:44:39.276Z,100863.82
2019-05-26T07:47:09.485Z,100861.28
2019-05-26T07:49:39.706Z,100862.62
2019-05-26T07:52:13.253Z,100855.25
2019-05-26T07:54:43.422Z,100861.83
2019-05-26T07:57:17.623Z,100859.41
2019-05-26T07:59:45.717Z,100857.92
2019-05-26T08:02:15.998Z,100861.73
2019-05-26T08:04:49.171Z,100859.44
2019-05-26T08:07:24.081Z,100869.23
2019-05-26T08:09:54.327Z,100863.75
2019-05-26T08:12:28.134Z,100875.64
2019-05-26T08:14:56.664Z,100862.45
2019-05-26T08:17:27.041Z,100850.52
2019-05-26T08:19:58.252Z,100843.56
2019-05-26T08:22:31.896Z,100836.58
2019-05-26T08:25:04.861Z,100834.22
2019-05-26T08:27:41.443Z,100833.41
2019-05-26T08:30:15.063Z,100831.74
2019-05-26T08:32:47.039Z,100824.21
2019-05-26T08:35:17.590Z,100821.34
2019-05-26T08:37:47.850Z,100828.54
2019-05-26T08:40:20.795Z,100825.33
2019-05-26T08:42:52.270Z,100816.48
2019-05-26T08:45:24.501Z,100815.80
2019-05-26T08:48:02.585Z,100810.82
2019-05-26T08:50:34.449Z,100815.16
2019-05-26T08:53:05.191Z,100816.75
2019-05-26T08:55:38.627Z,100819.42
2019-05-26T08:58:11.670Z,100822.50
2019-05-26T09:00:41.922Z,100809.80
2019-05-26T09:03:12.114Z,100812.02
2019-05-26T09:05:44.380Z,100807.92
2019-05-26T09:08:20.708Z,100809.81
2019-05-26T09:10:52.175Z,100805.53
2019-05-26T09:13:22.992Z,100814.36
2019-05-26T09:15:53.165Z,100814.13
2019-05-26T09:18:23.383Z,100808.14
2019-05-26T09:20:53.676Z,100813.23
2019-05-26T09:23:24.754Z,100804.07
2019-05-26T09:25:57.508Z,100798.86
2019-05-26T09:28:27.386Z,100795.34
2019-05-26T09:30:57.587Z,100796.70
2019-05-26T09:33:27.857Z,100795.34
2019-05-26T09:35:58.120Z,100796.84
2019-05-26T09:38:28.311Z,100787.35
2019-05-26T09:40:58.625Z,100782.12
2019-05-26T09:43:30.263Z,100786.25
2019-05-26T09:46:00.773Z,100788.25
2019-05-26T09:48:31.247Z,100799.16
2019-05-26T09:51:09.901Z,100791.45
2019-05-26T09:53:40.089Z,100790.95
2019-05-26T09:56:10.462Z,100793.27
2019-05-26T09:58:40.593Z,100790.00
2019-05-26T10:01:10.995Z,100784.52
2019-05-26T10:03:43.703Z,100780.02
2019-05-26T10:06:16.995Z,100783.00
2019-05-26T10:08:50.655Z,100781.66
2019-05-26T10:11:22.521Z,100780.48
2019-05-26T10:13:52.984Z,100784.20
2019-05-26T10:16:23.339Z,100783.92
2019-05-26T10:18:54.449Z,100777.19
2019-05-26T10:21:27.844Z,100782.67
2019-05-26T10:23:58.306Z,100772.52
2019-05-26T10:26:31.366Z,100769.61
2019-05-26T10:29:05.172Z,100768.75
2019-05-26T10:31:37.376Z,100753.73
2019-05-26T10:34:07.654Z,100745.91
2019-05-26T10:36:38.598Z,100749.47
2019-05-26T10:39:10.012Z,100750.44
2019-05-26T10:41:40.153Z,100752.72
2019-05-26T10:44:11.589Z,100744.39
2019-05-26T10:46:45.188Z,100745.47
2019-05-26T10:49:18.950Z,100748.13
2019-05-26T10:51:48.698Z,100735.80
2019-05-26T10:54:18.947Z,100736.21
2019-05-26T10:56:49.452Z,100733.84
2019-05-26T10:59:19.723Z,100738.69
2019-05-26T11:01:50.617Z,100728.39
2019-05-26T11:04:22.891Z,100728.30
2019-05-26T11:06:55.506Z,100731.14
2019-05-26T11:09:28.028Z,100735.77
2019-05-26T11:11:58.332Z,100722.61
2019-05-26T11:14:28.799Z,100712.72
2019-05-26T11:16:59.167Z,100716.17
2019-05-26T11:19:36.413Z,100712.70
2019-05-26T11:22:09.116Z,100718.69
2019-05-26T11:24:42.842Z,100711.77
2019-05-26T11:27:14.261Z,100709.89
2019-05-26T11:29:46.318Z,100710.61
2019-05-26T11:32:17.500Z,100704.91
2019-05-26T11:35:01.600Z,100705.13
2019-05-26T11:37:26.501Z,100704.65
2019-05-26T11:39:56.950Z,100704.77
2019-05-26T11:42:31.228Z,100694.19
2019-05-26T11:45:01.408Z,100695.16
2019-05-26T11:47:31.683Z,100688.81
2019-05-26T11:50:01.922Z,100682.07
2019-05-26T11:52:32.231Z,100682.77
2019-05-26T11:55:05.443Z,100680.22
2019-05-26T11:57:37.740Z,100675.06
2019-05-26T12:00:11.651Z,100669.19
2019-05-26T12:02:41.940Z,100671.23
2019-05-26T12:05:12.197Z,100658.91
2019-05-26T12:07:44.775Z,100666.36
2019-05-26T12:10:15.702Z,100661.36
2019-05-26T12:12:45.924Z,100658.52
2019-05-26T12:15:17.159Z,100648.87
2019-05-26T12:17:47.610Z,100660.20
2019-05-26T12:20:19.654Z,100647.39
2019-05-26T12:22:49.893Z,100649.32
2019-05-26T12:25:23.270Z,100650.91
2019-05-26T12:27:53.487Z,100644.02
2019-05-26T12:30:26.757Z,100645.77
2019-05-26T12:32:57.041Z,100646.58
2019-05-26T12:35:43.992Z,100640.22
2019-05-26T12:38:17.666Z,100642.17
2019-05-26T12:40:48.215Z,100633.47
2019-05-26T12:43:20.334Z,100634.95
2019-05-26T12:45:52.992Z,100633.45
2019-05-26T12:48:23.386Z,100630.52
2019-05-26T12:50:53.558Z,100627.72
2019-05-26T12:53:23.858Z,100622.06
2019-05-26T12:55:58.694Z,100627.43
2019-05-26T12:58:29.852Z,100606.75
2019-05-26T13:01:00.085Z,100619.09
2019-05-26T13:03:34.317Z,100621.09
2019-05-26T13:06:05.066Z,100624.33
2019-05-26T13:08:42.555Z,100613.55
2019-05-26T13:11:13.179Z,100624.30
2019-05-26T13:13:43.498Z,100620.59
2019-05-26T13:16:13.792Z,100608.02
2019-05-26T13:18:46.782Z,100616.86
2019-05-26T13:21:19.661Z,100617.57
2019-05-26T13:23:50.478Z,100619.55
2019-05-26T13:26:20.650Z,100620.45
2019-05-26T13:28:55.471Z,100609.95
2019-05-26T13:31:25.705Z,100617.94
2019-05-26T13:33:55.950Z,100616.13
2019-05-26T13:36:26.233Z,100606.63
2019-05-26T13:38:56.510Z,100612.83
2019-05-26T13:41:32.614Z,100594.34
2019-05-26T13:44:02.956Z,100597.91
2019-05-26T13:46:33.630Z,100598.11
2019-05-26T13:49:09.648Z,100582.30
2019-05-26T13:51:39.984Z,100585.97
2019-05-26T13:54:17.626Z,100585.97
2019-05-26T13:56:51.714Z,100587.88
2019-05-26T13:59:24.621Z,100584.12
2019-05-26T14:01:54.739Z,100568.27
2019-05-26T14:04:25.053Z,100574.09
2019-05-26T14:06:57.104Z,100572.31
2019-05-26T14:09:28.787Z,100570.51
2019-05-26T14:12:14.166Z,100569.96
2019-05-26T14:14:58.606Z,100566.89
2019-05-26T14:17:30.354Z,100549.77
2019-05-26T14:20:04.354Z,100565.54
2019-05-26T14:22:47.352Z,100557.80
2019-05-26T14:25:17.820Z,100557.80
2019-05-26T14:27:48.176Z,100549.44
2019-05-26T14:30:20.859Z,100549.44
2019-05-26T14:32:53.360Z,100530.54
2019-05-26T14:35:23.650Z,100530.54
2019-05-26T14:37:53.746Z,100541.00
2019-05-26T14:40:24.098Z,100551.02
2019-05-26T14:42:54.329Z,100532.69
2019-05-26T14:45:30.278Z,100532.69
2019-05-26T14:48:02.653Z,100540.97
2019-05-26T14:50:33.688Z,100536.50
2019-05-26T14:53:10.857Z,100545.52
2019-05-26T14:55:48.453Z,100538.22
2019-05-26T14:58:19.787Z,100517.80
2019-05-26T15:00:50.016Z,100526.62
2019-05-26T15:03:21.652Z,100527.31
2019-05-26T15:06:05.093Z,100521.77
2019-05-26T15:08:27.120Z,100516.56
2019-05-26T15:10:59.600Z,100512.41
2019-05-26T15:13:31.890Z,100511.83
2019-05-26T15:16:09.835Z,100507.19
2019-05-26T15:18:34.335Z,100504.25
2019-05-26T15:21:04.675Z,100500.97
2019-05-26T15:23:35.550Z,100506.48
2019-05-26T15:26:08.547Z,100506.24
2019-05-26T15:28:38.975Z,100499.45
2019-05-26T15:31:11.200Z,100494.17
2019-05-26T15:33:43.219Z,100489.88
2019-05-26T15:36:18.305Z,100496.05
2019-05-26T15:38:48.503Z,100484.53
2019-05-26T15:41:19.239Z,100490.43
2019-05-26T15:43:52.145Z,100489.31
2019-05-26T15:46:25.698Z,100487.17
2019-05-26T15:48:56.325Z,100484.45
2019-05-26T15:51:27.016Z,100480.89
2019-05-26T15:53:58.777Z,100487.25
2019-05-26T15:56:29.036Z,100479.67
2019-05-26T15:58:59.263Z,100478.68
2019-05-26T16:01:33.003Z,100473.81
2019-05-26T16:04:03.336Z,100463.31
2019-05-26T16:06:33.554Z,100461.26
2019-05-26T16:09:04.785Z,100475.38
2019-05-26T16:11:35.250Z,100465.83
2019-05-26T16:14:05.762Z,100455.91
2019-05-26T16:16:41.443Z,100458.44
2019-05-26T16:19:12.245Z,100460.87
2019-05-26T16:21:45.380Z,100457.92
2019-05-26T16:24:15.872Z,100454.12
2019-05-26T16:26:46.269Z,100451.23
2019-05-26T16:29:18.152Z,100454.30
2019-05-26T16:31:52.543Z,100448.92
2019-05-26T16:34:23.718Z,100452.31
2019-05-26T16:36:53.819Z,100450.84
2019-05-26T16:39:36.630Z,100442.59
2019-05-26T16:41:58.539Z,100456.19
2019-05-26T16:44:29.112Z,100438.38
2019-05-26T16:47:02.097Z,100437.06
2019-05-26T16:49:35.694Z,100435.58
2019-05-26T16:52:09.899Z,100431.53
2019-05-26T16:54:41.886Z,100430.56
2019-05-26T16:57:15.937Z,100419.97
2019-05-26T16:59:47.897Z,100418.17
2019-05-26T17:02:19.870Z,100413.97
2019-05-26T17:04:53.019Z,100406.05
2019-05-26T17:07:30.843Z,100404.40
2019-05-26T17:10:16.511Z,100402.20
2019-05-26T17:12:46.839Z,100394.84
2019-05-26T17:15:18.724Z,100393.66
2019-05-26T17:17:49.843Z,100392.59
2019-05-26T17:20:24.635Z,100406.50
2019-05-26T17:22:55.553Z,100392.84
2019-05-26T17:25:28.992Z,100402.44
2019-05-26T17:28:01.098Z,100402.30
2019-05-26T17:30:31.520Z,100402.66
2019-05-26T17:33:03.649Z,100401.94
2019-05-26T17:35:34.773Z,100408.78
2019-05-26T17:38:06.595Z,100406.77
2019-05-26T17:40:39.940Z,100412.11
2019-05-26T17:43:13.184Z,100410.74
2019-05-26T17:45:43.600Z,100403.52
2019-05-26T17:48:14.079Z,100402.72
2019-05-26T17:50:46.219Z,100404.16
2019-05-26T17:53:17.870Z,100403.49
2019-05-26T17:55:48.299Z,100409.61
2019-05-26T17:58:18.429Z,100406.72
2019-05-26T18:00:48.640Z,100408.11
2019-05-26T18:03:19.189Z,100411.09
2019-05-26T18:05:49.587Z,100402.69
2019-05-26T18:08:20.191Z,100397.95
2019-05-26T18:10:50.492Z,100408.55
2019-05-26T18:13:20.921Z,100401.66
2019-05-26T18:15:51.153Z,100401.96
2019-05-26T18:18:21.304Z,100396.77
2019-05-26T18:20:51.513Z,100396.84
2019-05-26T18:23:21.664Z,100400.18
2019-05-26T18:25:51.853Z,100397.98
2019-05-26T18:28:21.976Z,100390.26
2019-05-26T18:30:52.279Z,100399.19
2019-05-26T18:33:23.935Z,100392.64
2019-05-26T18:35:54.123Z,100389.41
2019-05-26T18:38:24.360Z,100391.94
2019-05-26T18:40:54.788Z,100394.31
2019-05-26T18:43:25.075Z,100394.59
2019-05-26T18:45:55.228Z,100393.08
2019-05-26T18:48:31.718Z,100388.92
2019-05-26T18:51:01.913Z,100384.15
2019-05-26T18:53:34.974Z,100383.57
2019-05-26T18:56:05.167Z,100384.59
2019-05-26T18:58:35.399Z,100378.63
2019-05-26T19:01:05.832Z,100377.53
2019-05-26T19:03:36.325Z,100380.00
2019-05-26T19:06:09.274Z,100384.44
2019-05-26T19:08:39.681Z,100377.84
2019-05-26T19:11:10.148Z,100377.84
2019-05-26T19:13:42.859Z,100373.05
2019-05-26T19:16:14.031Z,100377.33
2019-05-26T19:18:44.231Z,100368.52
2019-05-26T19:21:14.384Z,100366.84
2019-05-26T19:23:45.599Z,100368.30
2019-05-26T19:26:15.936Z,100369.37
2019-05-26T19:28:46.544Z,100369.18
2019-05-26T19:31:17.019Z,100363.92
2019-05-26T19:33:47.465Z,100364.47
2019-05-26T19:36:17.949Z,100366.39
2019-05-26T19:38:49.217Z,100364.98
2019-05-26T19:41:19.511Z,100362.73
2019-05-26T19:43:49.763Z,100358.14
2019-05-26T19:46:20.076Z,100365.72
2019-05-26T19:48:50.398Z,100367.50
2019-05-26T19:51:20.614Z,100365.38
2019-05-26T19:53:50.864Z,100366.94
2019-05-26T19:56:21.895Z,100368.17
2019-05-26T19:58:52.284Z,100373.20
2019-05-26T20:01:22.625Z,100366.20
2019-05-26T20:03:53.695Z,100362.45
2019-05-26T20:06:24.161Z,100361.00
2019-05-26T20:08:55.522Z,100363.73
2019-05-26T20:11:25.765Z,100364.93
2019-05-26T20:13:55.988Z,100359.30
2019-05-26T20:16:26.266Z,100358.91
2019-05-26T20:18:56.514Z,100359.02
2019-05-26T20:21:26.759Z,100357.01
2019-05-26T20:23:56.940Z,100356.44
2019-05-26T20:26:27.224Z,100353.19
2019-05-26T20:28:57.376Z,100346.46
2019-05-26T20:31:27.531Z,100354.64
2019-05-26T20:33:58.553Z,100351.66
2019-05-26T20:36:28.621Z,100348.30
2019-05-26T20:38:58.798Z,100348.63
2019-05-26T20:41:29.022Z,100349.75
2019-05-26T20:43:59.192Z,100342.64
2019-05-26T20:46:29.658Z,100353.43
2019-05-26T20:49:00.343Z,100342.47
2019-05-26T20:51:36.740Z,100343.81
2019-05-26T20:54:07.298Z,100340.41
2019-05-26T20:56:37.428Z,100336.38
2019-05-26T20:59:07.649Z,100337.90
2019-05-26T21:01:38.026Z,100331.41
2019-05-26T21:04:12.252Z,100329.02
2019-05-26T21:06:42.532Z,100331.98
2019-05-26T21:09:12.820Z,100328.55
2019-05-26T21:11:43.098Z,100328.13
2019-05-26T21:14:13.270Z,100327.77
2019-05-26T21:16:43.610Z,100322.75
2019-05-26T21:19:13.810Z,100326.89
2019-05-26T21:21:43.976Z,100324.48
2019-05-26T21:24:14.162Z,100316.66
2019-05-26T21:26:44.258Z,100314.75
2019-05-26T21:29:14.512Z,100310.12
2019-05-26T21:31:44.703Z,100309.22
2019-05-26T21:34:14.821Z,100311.49
2019-05-26T21:36:45.048Z,100309.01
2019-05-26T21:39:15.179Z,100311.30
2019-05-26T21:41:45.413Z,100313.81
2019-05-26T21:44:15.618Z,100308.64
2019-05-26T21:46:45.732Z,100310.73
2019-05-26T21:49:15.918Z,100308.95
2019-05-26T21:51:46.178Z,100304.53
2019-05-26T21:54:16.321Z,100306.42
2019-05-26T21:56:46.459Z,100302.89
2019-05-26T21:59:16.680Z,100303.56
2019-05-26T22:01:46.826Z,100299.62
2019-05-26T22:04:16.974Z,100301.27
2019-05-26T22:06:47.124Z,100293.67
2019-05-26T22:09:17.290Z,100293.30
2019-05-26T22:11:47.406Z,100292.45
2019-05-26T22:14:17.627Z,100292.84
2019-05-26T22:16:47.834Z,100288.51
2019-05-26T22:19:18.262Z,100289.46
2019-05-26T22:21:48.522Z,100287.38
2019-05-26T22:24:18.726Z,100282.47
2019-05-26T22:26:48.942Z,100279.48
2019-05-26T22:29:19.164Z,100272.58
2019-05-26T22:31:49.358Z,100277.69
2019-05-26T22:34:19.584Z,100274.61
2019-05-26T22:36:49.755Z,100275.00
2019-05-26T22:39:19.982Z,100267.23
2019-05-26T22:41:50.175Z,100263.13
2019-05-26T22:44:20.544Z,100260.89
2019-05-26T22:46:51.057Z,100250.86
2019-05-26T22:49:21.454Z,100248.83
2019-05-26T22:51:51.684Z,100251.31
2019-05-26T22:54:22.048Z,100245.73
2019-05-26T22:56:52.209Z,100249.41
2019-05-26T22:59:22.489Z,100245.75
2019-05-26T23:01:53.881Z,100247.98
2019-05-26T23:04:24.123Z,100249.22
2019-05-26T23:06:54.371Z,100243.17
2019-05-26T23:09:24.674Z,100250.73
2019-05-26T23:11:55.098Z,100247.11
2019-05-26T23:14:25.329Z,100248.64
2019-05-26T23:16:55.564Z,100247.50
2019-05-26T23:19:25.767Z,100240.69
2019-05-26T23:21:56.009Z,100236.87
2019-05-26T23:24:26.219Z,100228.52
2019-05-26T23:26:56.556Z,100234.83
2019-05-26T23:29:26.762Z,100226.59
2019-05-26T23:31:57.216Z,100228.92
2019-05-26T23:34:27.446Z,100226.89
2019-05-26T23:36:57.664Z,100220.75
2019-05-26T23:39:27.981Z,100218.16
2019-05-26T23:41:58.320Z,100217.97
2019-05-26T23:44:28.630Z,100212.06
2019-05-26T23:46:58.955Z,100218.58
2019-05-26T23:49:29.279Z,100206.86
2019-05-26T23:51:59.523Z,100209.17
2019-05-26T23:54:29.828Z,100216.08
2019-05-26T23:57:00.134Z,100214.81
2019-05-26T23:59:30.364Z,100208.22
